Portada
METAR-TAF:

METAR-TAF

Aeroports :

Medina, Aràbia Saudita

latitud: 24-33N, longitud: 039-42E, altitud: 654 m

Observació

L'informe es va fer fa 34 minuts, a les 23:00 UTC
Vent 7 kt del Oest
Temperatura 17°C
Humitat 45%
Pressió 1018 hPa
Visibilitat 10 km o més
sense núvols per sota de 1500 mi sense presència de cumulonimbus.

METAR: OEMA 182300Z 27007KT CAVOK 17/05 Q1018 NOSIG

Hora: 02:34 (23:34 UTC)

Pronòstic

L'informe es va fer fa 6 hores i 34 minuts, a les 17:00 UTC
Pronòstic vàlid del 18 a les 18 UTC al 19 a les 24 UTC
Vent 8 kt del Oest/Nord-Oest
Visibilitat 10 km o més
Núvols disperses a una alçada de 4500 ft
Núvols disperses a una alçada de 10000 ft

TAF: OEMA 181700Z 1818/1924 29008KT 9999 SCT045 SCT100

Observacions i pronòstics meteorològics de més de 4000 aeroports (METAR i TAF).

Les estacions disponibles són els punts grocs i vermells al mapa.

Posi el ratolí al punt desitjat per veure el nom de l'estació.

Feu clic per veure les observacions i els pronòstics meteorològics.

Per canviar el mapa: feu clic els botons verds amb una creu de color negre per apropar; al botó verd amb un guió per allunyar la imatge; o en les fletxes verdes per a mapes adjacents.


METAR-TAF: